sensor_id;sensor_type;location;lat;lon;timestamp;P1;durP1;ratioP1;P2;durP2;ratioP2
47749;SDS011;49810;48.160;10.812;2023-02-28T00:01:22;8.45;;;4.20;;
47749;SDS011;49810;48.160;10.812;2023-02-28T00:03:50;7.20;;;3.78;;
47749;SDS011;49810;48.160;10.812;2023-02-28T00:06:18;7.82;;;4.00;;
47749;SDS011;49810;48.160;10.812;2023-02-28T00:08:47;7.63;;;4.32;;
47749;SDS011;49810;48.160;10.812;2023-02-28T00:11:16;7.32;;;3.78;;
47749;SDS011;49810;48.160;10.812;2023-02-28T00:13:44;7.72;;;3.95;;
47749;SDS011;49810;48.160;10.812;2023-02-28T00:16:14;7.38;;;4.22;;
47749;SDS011;49810;48.160;10.812;2023-02-28T00:18:42;8.65;;;4.15;;
47749;SDS011;49810;48.160;10.812;2023-02-28T00:21:10;7.38;;;4.25;;
47749;SDS011;49810;48.160;10.812;2023-02-28T00:23:38;7.45;;;3.92;;
47749;SDS011;49810;48.160;10.812;2023-02-28T00:26:06;8.93;;;3.92;;
47749;SDS011;49810;48.160;10.812;2023-02-28T00:28:35;8.68;;;4.32;;
47749;SDS011;49810;48.160;10.812;2023-02-28T00:31:03;8.00;;;4.10;;
47749;SDS011;49810;48.160;10.812;2023-02-28T00:33:31;8.60;;;4.05;;
47749;SDS011;49810;48.160;10.812;2023-02-28T00:36:03;10.38;;;4.15;;
47749;SDS011;49810;48.160;10.812;2023-02-28T00:38:31;9.00;;;4.97;;
47749;SDS011;49810;48.160;10.812;2023-02-28T00:40:59;12.45;;;7.70;;
47749;SDS011;49810;48.160;10.812;2023-02-28T00:43:32;11.23;;;5.47;;
47749;SDS011;49810;48.160;10.812;2023-02-28T00:46:01;8.93;;;4.95;;
47749;SDS011;49810;48.160;10.812;2023-02-28T00:48:29;10.68;;;6.20;;
47749;SDS011;49810;48.160;10.812;2023-02-28T00:50:57;10.57;;;6.10;;
47749;SDS011;49810;48.160;10.812;2023-02-28T00:53:25;8.88;;;4.47;;
47749;SDS011;49810;48.160;10.812;2023-02-28T00:55:53;7.78;;;4.47;;
47749;SDS011;49810;48.160;10.812;2023-02-28T00:58:20;9.07;;;4.65;;
47749;SDS011;49810;48.160;10.812;2023-02-28T01:00:50;8.05;;;4.55;;
47749;SDS011;49810;48.160;10.812;2023-02-28T01:03:20;9.60;;;5.03;;
47749;SDS011;49810;48.160;10.812;2023-02-28T01:05:48;9.95;;;4.68;;
47749;SDS011;49810;48.160;10.812;2023-02-28T01:08:16;8.43;;;4.50;;
47749;SDS011;49810;48.160;10.812;2023-02-28T01:10:44;8.70;;;4.53;;
47749;SDS011;49810;48.160;10.812;2023-02-28T01:13:12;11.05;;;5.20;;
47749;SDS011;49810;48.160;10.812;2023-02-28T01:15:41;7.28;;;4.10;;
47749;SDS011;49810;48.160;10.812;2023-02-28T01:18:11;10.10;;;4.53;;
47749;SDS011;49810;48.160;10.812;2023-02-28T01:20:40;8.10;;;4.80;;
47749;SDS011;49810;48.160;10.812;2023-02-28T01:23:08;7.40;;;4.38;;
47749;SDS011;49810;48.160;10.812;2023-02-28T01:25:36;8.45;;;4.55;;
47749;SDS011;49810;48.160;10.812;2023-02-28T01:28:04;9.75;;;4.72;;
47749;SDS011;49810;48.160;10.812;2023-02-28T01:30:33;8.18;;;4.85;;
47749;SDS011;49810;48.160;10.812;2023-02-28T01:33:01;8.52;;;5.22;;
47749;SDS011;49810;48.160;10.812;2023-02-28T01:35:31;9.88;;;4.93;;
47749;SDS011;49810;48.160;10.812;2023-02-28T01:38:01;11.75;;;5.28;;
47749;SDS011;49810;48.160;10.812;2023-02-28T01:40:46;10.02;;;4.95;;
47749;SDS011;49810;48.160;10.812;2023-02-28T01:43:17;9.05;;;5.03;;
47749;SDS011;49810;48.160;10.812;2023-02-28T01:45:46;9.27;;;4.97;;
47749;SDS011;49810;48.160;10.812;2023-02-28T01:48:14;6.95;;;4.75;;
47749;SDS011;49810;48.160;10.812;2023-02-28T01:50:43;9.32;;;5.25;;
47749;SDS011;49810;48.160;10.812;2023-02-28T01:53:15;10.00;;;5.00;;
47749;SDS011;49810;48.160;10.812;2023-02-28T01:55:45;9.77;;;5.10;;
47749;SDS011;49810;48.160;10.812;2023-02-28T01:58:14;9.10;;;5.55;;
47749;SDS011;49810;48.160;10.812;2023-02-28T02:00:43;9.30;;;5.10;;
47749;SDS011;49810;48.160;10.812;2023-02-28T02:03:12;10.63;;;5.68;;
47749;SDS011;49810;48.160;10.812;2023-02-28T02:05:42;10.05;;;5.15;;
47749;SDS011;49810;48.160;10.812;2023-02-28T02:08:16;10.55;;;5.60;;
47749;SDS011;49810;48.160;10.812;2023-02-28T02:10:45;9.20;;;5.32;;
47749;SDS011;49810;48.160;10.812;2023-02-28T02:16:09;10.25;;;5.68;;
47749;SDS011;49810;48.160;10.812;2023-02-28T02:18:43;10.52;;;5.25;;
47749;SDS011;49810;48.160;10.812;2023-02-28T02:21:24;10.85;;;5.13;;
47749;SDS011;49810;48.160;10.812;2023-02-28T02:26:55;14.43;;;5.05;;
47749;SDS011;49810;48.160;10.812;2023-02-28T02:32:20;12.68;;;5.82;;
47749;SDS011;49810;48.160;10.812;2023-02-28T02:35:01;12.32;;;5.20;;
47749;SDS011;49810;48.160;10.812;2023-02-28T02:37:35;9.75;;;5.70;;
47749;SDS011;49810;48.160;10.812;2023-02-28T02:40:08;9.73;;;5.40;;
47749;SDS011;49810;48.160;10.812;2023-02-28T02:42:39;9.55;;;5.47;;
47749;SDS011;49810;48.160;10.812;2023-02-28T02:45:10;9.98;;;5.40;;
47749;SDS011;49810;48.160;10.812;2023-02-28T02:47:40;11.30;;;5.75;;
47749;SDS011;49810;48.160;10.812;2023-02-28T02:50:12;13.32;;;5.78;;
47749;SDS011;49810;48.160;10.812;2023-02-28T02:52:42;13.35;;;5.97;;
47749;SDS011;49810;48.160;10.812;2023-02-28T02:55:14;15.00;;;6.57;;
47749;SDS011;49810;48.160;10.812;2023-02-28T02:57:43;11.88;;;5.68;;
47749;SDS011;49810;48.160;10.812;2023-02-28T03:00:14;9.45;;;5.10;;
47749;SDS011;49810;48.160;10.812;2023-02-28T03:02:43;11.95;;;5.93;;
47749;SDS011;49810;48.160;10.812;2023-02-28T03:05:15;12.35;;;5.65;;
47749;SDS011;49810;48.160;10.812;2023-02-28T03:07:45;13.57;;;6.50;;
47749;SDS011;49810;48.160;10.812;2023-02-28T03:13:07;11.80;;;6.00;;
47749;SDS011;49810;48.160;10.812;2023-02-28T03:15:41;12.82;;;6.15;;
47749;SDS011;49810;48.160;10.812;2023-02-28T03:18:12;11.65;;;5.72;;
47749;SDS011;49810;48.160;10.812;2023-02-28T03:20:49;11.23;;;6.07;;
47749;SDS011;49810;48.160;10.812;2023-02-28T03:23:20;10.15;;;5.88;;
47749;SDS011;49810;48.160;10.812;2023-02-28T03:25:54;12.88;;;6.18;;
47749;SDS011;49810;48.160;10.812;2023-02-28T03:28:27;12.20;;;5.68;;
47749;SDS011;49810;48.160;10.812;2023-02-28T03:30:59;13.23;;;6.25;;
47749;SDS011;49810;48.160;10.812;2023-02-28T03:33:29;10.45;;;5.32;;
47749;SDS011;49810;48.160;10.812;2023-02-28T03:36:01;10.10;;;5.65;;
47749;SDS011;49810;48.160;10.812;2023-02-28T03:38:31;13.05;;;6.72;;
47749;SDS011;49810;48.160;10.812;2023-02-28T03:41:02;13.02;;;6.55;;
47749;SDS011;49810;48.160;10.812;2023-02-28T03:43:33;12.52;;;6.32;;
47749;SDS011;49810;48.160;10.812;2023-02-28T03:46:02;11.88;;;6.20;;
47749;SDS011;49810;48.160;10.812;2023-02-28T03:48:35;12.25;;;6.72;;
47749;SDS011;49810;48.160;10.812;2023-02-28T03:51:07;14.57;;;6.80;;
47749;SDS011;49810;48.160;10.812;2023-02-28T03:53:37;13.55;;;7.00;;
47749;SDS011;49810;48.160;10.812;2023-02-28T03:56:08;15.82;;;6.65;;
47749;SDS011;49810;48.160;10.812;2023-02-28T03:58:40;12.52;;;6.57;;
47749;SDS011;49810;48.160;10.812;2023-02-28T04:01:11;15.48;;;7.72;;
47749;SDS011;49810;48.160;10.812;2023-02-28T04:03:39;13.73;;;6.85;;
47749;SDS011;49810;48.160;10.812;2023-02-28T04:06:13;13.15;;;7.30;;
47749;SDS011;49810;48.160;10.812;2023-02-28T04:08:42;15.18;;;7.43;;
47749;SDS011;49810;48.160;10.812;2023-02-28T04:11:14;16.50;;;7.80;;
47749;SDS011;49810;48.160;10.812;2023-02-28T04:16:13;14.23;;;7.18;;
47749;SDS011;49810;48.160;10.812;2023-02-28T04:18:59;13.20;;;7.20;;
47749;SDS011;49810;48.160;10.812;2023-02-28T04:21:31;15.02;;;7.63;;
47749;SDS011;49810;48.160;10.812;2023-02-28T04:23:59;17.33;;;7.45;;
47749;SDS011;49810;48.160;10.812;2023-02-28T04:26:28;14.77;;;7.82;;
47749;SDS011;49810;48.160;10.812;2023-02-28T04:28:57;16.98;;;8.45;;
47749;SDS011;49810;48.160;10.812;2023-02-28T04:31:25;15.40;;;8.48;;
47749;SDS011;49810;48.160;10.812;2023-02-28T04:33:54;16.30;;;8.02;;
47749;SDS011;49810;48.160;10.812;2023-02-28T04:36:22;17.63;;;8.20;;
47749;SDS011;49810;48.160;10.812;2023-02-28T04:38:51;18.13;;;8.82;;
47749;SDS011;49810;48.160;10.812;2023-02-28T04:41:19;14.98;;;7.88;;
47749;SDS011;49810;48.160;10.812;2023-02-28T04:43:47;18.75;;;8.70;;
47749;SDS011;49810;48.160;10.812;2023-02-28T04:46:15;18.10;;;9.95;;
47749;SDS011;49810;48.160;10.812;2023-02-28T04:48:43;18.75;;;9.20;;
47749;SDS011;49810;48.160;10.812;2023-02-28T04:51:13;16.45;;;8.63;;
47749;SDS011;49810;48.160;10.812;2023-02-28T04:53:42;19.70;;;9.23;;
47749;SDS011;49810;48.160;10.812;2023-02-28T04:56:11;18.02;;;9.88;;
47749;SDS011;49810;48.160;10.812;2023-02-28T04:58:39;17.13;;;8.82;;
47749;SDS011;49810;48.160;10.812;2023-02-28T05:01:14;21.48;;;9.55;;
47749;SDS011;49810;48.160;10.812;2023-02-28T05:03:43;20.13;;;10.50;;
47749;SDS011;49810;48.160;10.812;2023-02-28T05:06:12;20.02;;;9.35;;
47749;SDS011;49810;48.160;10.812;2023-02-28T05:08:40;19.85;;;9.45;;
47749;SDS011;49810;48.160;10.812;2023-02-28T05:11:13;18.00;;;10.00;;
47749;SDS011;49810;48.160;10.812;2023-02-28T05:13:41;20.35;;;10.05;;
47749;SDS011;49810;48.160;10.812;2023-02-28T05:16:09;22.35;;;9.73;;
47749;SDS011;49810;48.160;10.812;2023-02-28T05:18:37;19.90;;;10.40;;
47749;SDS011;49810;48.160;10.812;2023-02-28T05:21:05;20.85;;;10.00;;
47749;SDS011;49810;48.160;10.812;2023-02-28T05:23:33;20.45;;;9.73;;
47749;SDS011;49810;48.160;10.812;2023-02-28T05:26:01;21.70;;;10.85;;
47749;SDS011;49810;48.160;10.812;2023-02-28T05:28:30;18.65;;;10.65;;
47749;SDS011;49810;48.160;10.812;2023-02-28T05:30:58;19.15;;;11.55;;
47749;SDS011;49810;48.160;10.812;2023-02-28T05:33:26;18.52;;;9.98;;
47749;SDS011;49810;48.160;10.812;2023-02-28T05:35:54;21.83;;;12.35;;
47749;SDS011;49810;48.160;10.812;2023-02-28T05:38:22;19.35;;;11.23;;
47749;SDS011;49810;48.160;10.812;2023-02-28T05:40:50;22.85;;;12.10;;
47749;SDS011;49810;48.160;10.812;2023-02-28T05:43:18;24.55;;;11.45;;
47749;SDS011;49810;48.160;10.812;2023-02-28T05:45:47;23.95;;;12.60;;
47749;SDS011;49810;48.160;10.812;2023-02-28T05:48:15;22.15;;;12.23;;
47749;SDS011;49810;48.160;10.812;2023-02-28T05:50:45;21.70;;;12.45;;
47749;SDS011;49810;48.160;10.812;2023-02-28T05:53:13;23.80;;;13.05;;
47749;SDS011;49810;48.160;10.812;2023-02-28T05:55:42;26.75;;;13.07;;
47749;SDS011;49810;48.160;10.812;2023-02-28T05:58:09;27.55;;;14.15;;
47749;SDS011;49810;48.160;10.812;2023-02-28T06:00:37;26.80;;;13.98;;
47749;SDS011;49810;48.160;10.812;2023-02-28T06:03:09;23.90;;;13.70;;
47749;SDS011;49810;48.160;10.812;2023-02-28T06:05:37;26.25;;;13.55;;
47749;SDS011;49810;48.160;10.812;2023-02-28T06:08:06;28.30;;;14.48;;
47749;SDS011;49810;48.160;10.812;2023-02-28T06:10:34;25.55;;;14.10;;
47749;SDS011;49810;48.160;10.812;2023-02-28T06:13:03;26.60;;;14.65;;
47749;SDS011;49810;48.160;10.812;2023-02-28T06:15:30;27.17;;;14.65;;
47749;SDS011;49810;48.160;10.812;2023-02-28T06:17:58;26.42;;;14.65;;
47749;SDS011;49810;48.160;10.812;2023-02-28T06:20:29;25.30;;;14.50;;
47749;SDS011;49810;48.160;10.812;2023-02-28T06:22:57;25.05;;;13.77;;
47749;SDS011;49810;48.160;10.812;2023-02-28T06:25:26;24.65;;;13.57;;
47749;SDS011;49810;48.160;10.812;2023-02-28T06:27:54;26.08;;;14.90;;
47749;SDS011;49810;48.160;10.812;2023-02-28T06:30:22;27.60;;;14.82;;
47749;SDS011;49810;48.160;10.812;2023-02-28T06:32:53;25.35;;;13.68;;
47749;SDS011;49810;48.160;10.812;2023-02-28T06:35:21;27.88;;;14.93;;
47749;SDS011;49810;48.160;10.812;2023-02-28T06:37:51;29.23;;;15.10;;
47749;SDS011;49810;48.160;10.812;2023-02-28T06:40:19;24.15;;;14.80;;
47749;SDS011;49810;48.160;10.812;2023-02-28T06:42:47;24.83;;;14.25;;
47749;SDS011;49810;48.160;10.812;2023-02-28T06:45:15;26.33;;;13.80;;
47749;SDS011;49810;48.160;10.812;2023-02-28T06:47:42;28.08;;;15.90;;
47749;SDS011;49810;48.160;10.812;2023-02-28T06:50:11;27.65;;;15.52;;
47749;SDS011;49810;48.160;10.812;2023-02-28T06:52:39;29.40;;;15.32;;
47749;SDS011;49810;48.160;10.812;2023-02-28T06:55:08;28.70;;;15.23;;
47749;SDS011;49810;48.160;10.812;2023-02-28T06:57:37;26.92;;;15.27;;
47749;SDS011;49810;48.160;10.812;2023-02-28T07:00:06;30.85;;;15.90;;
47749;SDS011;49810;48.160;10.812;2023-02-28T07:02:34;27.00;;;15.32;;
47749;SDS011;49810;48.160;10.812;2023-02-28T07:05:02;28.83;;;15.20;;
47749;SDS011;49810;48.160;10.812;2023-02-28T07:07:31;32.13;;;16.67;;
47749;SDS011;49810;48.160;10.812;2023-02-28T07:09:58;28.10;;;15.77;;
47749;SDS011;49810;48.160;10.812;2023-02-28T07:12:28;27.52;;;15.25;;
47749;SDS011;49810;48.160;10.812;2023-02-28T07:14:55;29.85;;;16.90;;
47749;SDS011;49810;48.160;10.812;2023-02-28T07:17:23;29.48;;;15.75;;
47749;SDS011;49810;48.160;10.812;2023-02-28T07:19:51;27.13;;;15.38;;
47749;SDS011;49810;48.160;10.812;2023-02-28T07:22:19;29.85;;;15.88;;
47749;SDS011;49810;48.160;10.812;2023-02-28T07:24:47;28.67;;;16.42;;
47749;SDS011;49810;48.160;10.812;2023-02-28T07:27:15;31.98;;;16.42;;
47749;SDS011;49810;48.160;10.812;2023-02-28T07:29:53;29.40;;;16.90;;
47749;SDS011;49810;48.160;10.812;2023-02-28T07:32:22;32.85;;;17.00;;
47749;SDS011;49810;48.160;10.812;2023-02-28T07:34:50;33.78;;;17.55;;
47749;SDS011;49810;48.160;10.812;2023-02-28T07:37:17;32.53;;;17.17;;
47749;SDS011;49810;48.160;10.812;2023-02-28T07:39:45;29.52;;;16.88;;
47749;SDS011;49810;48.160;10.812;2023-02-28T07:42:13;30.58;;;17.55;;
47749;SDS011;49810;48.160;10.812;2023-02-28T07:44:41;28.08;;;17.40;;
47749;SDS011;49810;48.160;10.812;2023-02-28T07:47:10;30.95;;;17.88;;
47749;SDS011;49810;48.160;10.812;2023-02-28T07:49:38;31.77;;;18.38;;
47749;SDS011;49810;48.160;10.812;2023-02-28T07:52:06;31.52;;;17.80;;
47749;SDS011;49810;48.160;10.812;2023-02-28T07:54:36;28.42;;;16.65;;
47749;SDS011;49810;48.160;10.812;2023-02-28T07:57:04;30.40;;;17.30;;
47749;SDS011;49810;48.160;10.812;2023-02-28T07:59:32;33.05;;;18.67;;
47749;SDS011;49810;48.160;10.812;2023-02-28T08:02:00;32.22;;;17.90;;
47749;SDS011;49810;48.160;10.812;2023-02-28T08:04:31;31.73;;;17.58;;
47749;SDS011;49810;48.160;10.812;2023-02-28T08:06:59;32.97;;;18.75;;
47749;SDS011;49810;48.160;10.812;2023-02-28T08:09:27;34.92;;;18.02;;
47749;SDS011;49810;48.160;10.812;2023-02-28T08:11:56;32.25;;;17.52;;
47749;SDS011;49810;48.160;10.812;2023-02-28T08:14:24;37.85;;;19.20;;
47749;SDS011;49810;48.160;10.812;2023-02-28T08:16:51;31.55;;;17.98;;
47749;SDS011;49810;48.160;10.812;2023-02-28T08:19:19;36.53;;;18.92;;
47749;SDS011;49810;48.160;10.812;2023-02-28T08:21:49;32.72;;;18.52;;
47749;SDS011;49810;48.160;10.812;2023-02-28T08:24:16;28.85;;;17.00;;
47749;SDS011;49810;48.160;10.812;2023-02-28T08:26:44;33.50;;;18.20;;
47749;SDS011;49810;48.160;10.812;2023-02-28T08:29:12;31.88;;;17.52;;
47749;SDS011;49810;48.160;10.812;2023-02-28T08:31:40;33.78;;;18.52;;
47749;SDS011;49810;48.160;10.812;2023-02-28T08:34:09;29.83;;;17.15;;
47749;SDS011;49810;48.160;10.812;2023-02-28T08:36:38;33.05;;;18.75;;
47749;SDS011;49810;48.160;10.812;2023-02-28T08:39:07;36.10;;;19.08;;
47749;SDS011;49810;48.160;10.812;2023-02-28T08:41:35;34.65;;;17.98;;
47749;SDS011;49810;48.160;10.812;2023-02-28T08:44:03;36.42;;;18.85;;
47749;SDS011;49810;48.160;10.812;2023-02-28T08:46:31;32.38;;;19.42;;
47749;SDS011;49810;48.160;10.812;2023-02-28T08:48:59;29.73;;;17.77;;
47749;SDS011;49810;48.160;10.812;2023-02-28T08:51:28;31.90;;;17.65;;
47749;SDS011;49810;48.160;10.812;2023-02-28T08:53:58;31.45;;;17.73;;
47749;SDS011;49810;48.160;10.812;2023-02-28T08:56:27;32.80;;;18.83;;
47749;SDS011;49810;48.160;10.812;2023-02-28T08:58:56;30.17;;;17.58;;
47749;SDS011;49810;48.160;10.812;2023-02-28T09:01:25;31.77;;;18.50;;
47749;SDS011;49810;48.160;10.812;2023-02-28T09:03:55;33.45;;;18.10;;
47749;SDS011;49810;48.160;10.812;2023-02-28T09:06:24;31.50;;;18.08;;
47749;SDS011;49810;48.160;10.812;2023-02-28T09:08:53;32.35;;;18.80;;
47749;SDS011;49810;48.160;10.812;2023-02-28T09:11:24;32.17;;;17.35;;
47749;SDS011;49810;48.160;10.812;2023-02-28T09:13:54;34.85;;;18.80;;
47749;SDS011;49810;48.160;10.812;2023-02-28T09:16:22;33.70;;;19.40;;
47749;SDS011;49810;48.160;10.812;2023-02-28T09:18:51;29.58;;;18.77;;
47749;SDS011;49810;48.160;10.812;2023-02-28T09:21:19;31.20;;;18.42;;
47749;SDS011;49810;48.160;10.812;2023-02-28T09:23:47;31.92;;;18.25;;
47749;SDS011;49810;48.160;10.812;2023-02-28T09:26:16;42.88;;;20.23;;
47749;SDS011;49810;48.160;10.812;2023-02-28T09:28:44;42.05;;;21.40;;
47749;SDS011;49810;48.160;10.812;2023-02-28T09:31:13;34.28;;;19.65;;
47749;SDS011;49810;48.160;10.812;2023-02-28T09:33:42;30.33;;;18.10;;
47749;SDS011;49810;48.160;10.812;2023-02-28T09:36:10;33.10;;;19.20;;
47749;SDS011;49810;48.160;10.812;2023-02-28T09:38:37;41.10;;;18.70;;
47749;SDS011;49810;48.160;10.812;2023-02-28T09:41:10;37.00;;;19.15;;
47749;SDS011;49810;48.160;10.812;2023-02-28T09:43:40;33.78;;;18.98;;
47749;SDS011;49810;48.160;10.812;2023-02-28T09:46:14;31.85;;;18.15;;
47749;SDS011;49810;48.160;10.812;2023-02-28T09:48:46;35.40;;;18.50;;
47749;SDS011;49810;48.160;10.812;2023-02-28T09:51:16;28.13;;;17.00;;
47749;SDS011;49810;48.160;10.812;2023-02-28T09:53:48;34.90;;;18.75;;
47749;SDS011;49810;48.160;10.812;2023-02-28T09:56:26;29.67;;;17.45;;
47749;SDS011;49810;48.160;10.812;2023-02-28T09:58:57;32.80;;;19.27;;
47749;SDS011;49810;48.160;10.812;2023-02-28T10:01:29;38.13;;;20.35;;
47749;SDS011;49810;48.160;10.812;2023-02-28T10:04:00;26.77;;;14.85;;
47749;SDS011;49810;48.160;10.812;2023-02-28T10:06:29;28.58;;;17.67;;
47749;SDS011;49810;48.160;10.812;2023-02-28T10:08:58;26.75;;;16.80;;
47749;SDS011;49810;48.160;10.812;2023-02-28T10:11:28;30.33;;;18.00;;
47749;SDS011;49810;48.160;10.812;2023-02-28T10:13:59;26.85;;;16.75;;
47749;SDS011;49810;48.160;10.812;2023-02-28T10:16:33;29.55;;;17.63;;
47749;SDS011;49810;48.160;10.812;2023-02-28T10:19:03;29.95;;;18.08;;
47749;SDS011;49810;48.160;10.812;2023-02-28T10:21:33;28.73;;;18.05;;
47749;SDS011;49810;48.160;10.812;2023-02-28T10:24:05;28.17;;;16.48;;
47749;SDS011;49810;48.160;10.812;2023-02-28T10:26:43;30.80;;;17.92;;
47749;SDS011;49810;48.160;10.812;2023-02-28T10:29:12;44.92;;;18.35;;
47749;SDS011;49810;48.160;10.812;2023-02-28T10:31:41;26.75;;;16.60;;
47749;SDS011;49810;48.160;10.812;2023-02-28T10:34:11;31.23;;;16.95;;
47749;SDS011;49810;48.160;10.812;2023-02-28T10:36:39;27.45;;;16.35;;
47749;SDS011;49810;48.160;10.812;2023-02-28T10:41:59;35.17;;;19.35;;
47749;SDS011;49810;48.160;10.812;2023-02-28T10:44:27;39.45;;;19.30;;
47749;SDS011;49810;48.160;10.812;2023-02-28T10:46:56;27.65;;;16.65;;
47749;SDS011;49810;48.160;10.812;2023-02-28T10:49:24;30.25;;;16.73;;
47749;SDS011;49810;48.160;10.812;2023-02-28T10:51:54;27.70;;;17.27;;
47749;SDS011;49810;48.160;10.812;2023-02-28T10:54:24;24.30;;;15.43;;
47749;SDS011;49810;48.160;10.812;2023-02-28T10:57:08;26.80;;;15.98;;
47749;SDS011;49810;48.160;10.812;2023-02-28T10:59:36;26.60;;;15.32;;
47749;SDS011;49810;48.160;10.812;2023-02-28T11:02:16;24.05;;;15.55;;
47749;SDS011;49810;48.160;10.812;2023-02-28T11:05:02;26.58;;;15.73;;
47749;SDS011;49810;48.160;10.812;2023-02-28T11:07:31;27.48;;;16.30;;
47749;SDS011;49810;48.160;10.812;2023-02-28T11:10:17;25.48;;;15.40;;
47749;SDS011;49810;48.160;10.812;2023-02-28T11:12:47;28.02;;;16.75;;
47749;SDS011;49810;48.160;10.812;2023-02-28T11:15:21;26.38;;;15.48;;
47749;SDS011;49810;48.160;10.812;2023-02-28T11:17:54;27.95;;;16.48;;
47749;SDS011;49810;48.160;10.812;2023-02-28T11:20:23;32.92;;;19.60;;
47749;SDS011;49810;48.160;10.812;2023-02-28T11:22:51;33.70;;;20.50;;
47749;SDS011;49810;48.160;10.812;2023-02-28T11:25:20;27.52;;;18.30;;
47749;SDS011;49810;48.160;10.812;2023-02-28T11:27:49;33.80;;;19.17;;
47749;SDS011;49810;48.160;10.812;2023-02-28T11:30:24;43.30;;;24.88;;
47749;SDS011;49810;48.160;10.812;2023-02-28T11:32:52;34.78;;;20.85;;
47749;SDS011;49810;48.160;10.812;2023-02-28T11:35:23;29.90;;;19.10;;
47749;SDS011;49810;48.160;10.812;2023-02-28T11:37:52;29.63;;;18.08;;
47749;SDS011;49810;48.160;10.812;2023-02-28T11:40:21;37.03;;;21.20;;
47749;SDS011;49810;48.160;10.812;2023-02-28T11:42:54;32.47;;;19.25;;
47749;SDS011;49810;48.160;10.812;2023-02-28T11:45:29;28.27;;;17.52;;
47749;SDS011;49810;48.160;10.812;2023-02-28T11:48:04;24.17;;;16.73;;
47749;SDS011;49810;48.160;10.812;2023-02-28T11:50:42;26.30;;;16.55;;
47749;SDS011;49810;48.160;10.812;2023-02-28T11:53:14;24.75;;;17.05;;
47749;SDS011;49810;48.160;10.812;2023-02-28T11:55:44;30.45;;;17.35;;
47749;SDS011;49810;48.160;10.812;2023-02-28T12:01:06;26.35;;;16.35;;
47749;SDS011;49810;48.160;10.812;2023-02-28T12:03:39;24.83;;;15.90;;
47749;SDS011;49810;48.160;10.812;2023-02-28T12:06:18;25.23;;;15.00;;
47749;SDS011;49810;48.160;10.812;2023-02-28T12:08:49;27.20;;;17.17;;
47749;SDS011;49810;48.160;10.812;2023-02-28T12:11:22;34.83;;;19.42;;
47749;SDS011;49810;48.160;10.812;2023-02-28T12:13:58;28.40;;;17.65;;
47749;SDS011;49810;48.160;10.812;2023-02-28T12:16:34;26.98;;;16.45;;
47749;SDS011;49810;48.160;10.812;2023-02-28T12:19:07;23.83;;;15.07;;
47749;SDS011;49810;48.160;10.812;2023-02-28T12:21:47;27.95;;;14.07;;
47749;SDS011;49810;48.160;10.812;2023-02-28T12:24:21;22.70;;;14.73;;
47749;SDS011;49810;48.160;10.812;2023-02-28T12:26:52;21.48;;;14.20;;
47749;SDS011;49810;48.160;10.812;2023-02-28T12:29:21;25.52;;;14.93;;
47749;SDS011;49810;48.160;10.812;2023-02-28T12:31:52;21.40;;;14.75;;
47749;SDS011;49810;48.160;10.812;2023-02-28T12:34:21;27.05;;;14.32;;
47749;SDS011;49810;48.160;10.812;2023-02-28T12:36:52;21.10;;;14.68;;
47749;SDS011;49810;48.160;10.812;2023-02-28T12:39:23;21.33;;;15.02;;
47749;SDS011;49810;48.160;10.812;2023-02-28T12:41:54;20.80;;;14.25;;
47749;SDS011;49810;48.160;10.812;2023-02-28T12:44:25;21.27;;;13.93;;
47749;SDS011;49810;48.160;10.812;2023-02-28T12:46:55;20.40;;;13.00;;
47749;SDS011;49810;48.160;10.812;2023-02-28T12:49:25;19.40;;;13.68;;
47749;SDS011;49810;48.160;10.812;2023-02-28T12:51:58;28.40;;;13.80;;
47749;SDS011;49810;48.160;10.812;2023-02-28T12:54:28;19.80;;;15.00;;
47749;SDS011;49810;48.160;10.812;2023-02-28T12:56:58;21.48;;;13.40;;
47749;SDS011;49810;48.160;10.812;2023-02-28T12:59:32;19.92;;;13.98;;
47749;SDS011;49810;48.160;10.812;2023-02-28T13:05:01;21.35;;;13.13;;
47749;SDS011;49810;48.160;10.812;2023-02-28T13:07:44;24.02;;;13.63;;
47749;SDS011;49810;48.160;10.812;2023-02-28T13:10:17;25.80;;;13.32;;
47749;SDS011;49810;48.160;10.812;2023-02-28T13:12:48;18.95;;;13.50;;
47749;SDS011;49810;48.160;10.812;2023-02-28T13:15:18;18.27;;;13.15;;
47749;SDS011;49810;48.160;10.812;2023-02-28T13:17:48;18.33;;;13.63;;
47749;SDS011;49810;48.160;10.812;2023-02-28T13:20:17;22.67;;;14.32;;
47749;SDS011;49810;48.160;10.812;2023-02-28T13:22:47;19.38;;;13.77;;
47749;SDS011;49810;48.160;10.812;2023-02-28T13:28:03;24.73;;;13.50;;
47749;SDS011;49810;48.160;10.812;2023-02-28T13:33:27;16.65;;;12.60;;
47749;SDS011;49810;48.160;10.812;2023-02-28T13:36:08;20.85;;;12.88;;
47749;SDS011;49810;48.160;10.812;2023-02-28T13:38:39;18.48;;;13.35;;
47749;SDS011;49810;48.160;10.812;2023-02-28T13:43:59;17.88;;;12.55;;
47749;SDS011;49810;48.160;10.812;2023-02-28T13:46:27;16.77;;;11.48;;
47749;SDS011;49810;48.160;10.812;2023-02-28T13:48:55;17.98;;;12.82;;
47749;SDS011;49810;48.160;10.812;2023-02-28T13:51:37;18.92;;;13.65;;
47749;SDS011;49810;48.160;10.812;2023-02-28T13:54:14;25.77;;;16.17;;
47749;SDS011;49810;48.160;10.812;2023-02-28T13:56:45;22.60;;;14.27;;
47749;SDS011;49810;48.160;10.812;2023-02-28T13:59:17;17.48;;;13.13;;
47749;SDS011;49810;48.160;10.812;2023-02-28T14:01:54;19.63;;;12.50;;
47749;SDS011;49810;48.160;10.812;2023-02-28T14:04:30;16.98;;;12.02;;
47749;SDS011;49810;48.160;10.812;2023-02-28T14:07:04;15.75;;;12.25;;
47749;SDS011;49810;48.160;10.812;2023-02-28T14:09:34;24.67;;;13.27;;
47749;SDS011;49810;48.160;10.812;2023-02-28T14:14:54;18.75;;;13.55;;
47749;SDS011;49810;48.160;10.812;2023-02-28T14:17:24;17.25;;;13.43;;
47749;SDS011;49810;48.160;10.812;2023-02-28T14:19:52;18.92;;;13.55;;
47749;SDS011;49810;48.160;10.812;2023-02-28T14:22:37;22.80;;;15.93;;
47749;SDS011;49810;48.160;10.812;2023-02-28T14:25:11;21.60;;;14.70;;
47749;SDS011;49810;48.160;10.812;2023-02-28T14:27:45;20.33;;;13.73;;
47749;SDS011;49810;48.160;10.812;2023-02-28T14:30:29;22.52;;;13.65;;
47749;SDS011;49810;48.160;10.812;2023-02-28T14:33:10;21.63;;;13.63;;
47749;SDS011;49810;48.160;10.812;2023-02-28T14:35:51;20.73;;;13.30;;
47749;SDS011;49810;48.160;10.812;2023-02-28T14:38:23;21.02;;;13.35;;
47749;SDS011;49810;48.160;10.812;2023-02-28T14:40:54;20.15;;;13.95;;
47749;SDS011;49810;48.160;10.812;2023-02-28T14:43:23;23.10;;;14.30;;
47749;SDS011;49810;48.160;10.812;2023-02-28T14:45:53;22.23;;;13.60;;
47749;SDS011;49810;48.160;10.812;2023-02-28T14:48:21;21.08;;;13.65;;
47749;SDS011;49810;48.160;10.812;2023-02-28T14:50:52;23.40;;;13.88;;
47749;SDS011;49810;48.160;10.812;2023-02-28T14:53:21;23.00;;;14.10;;
47749;SDS011;49810;48.160;10.812;2023-02-28T14:55:50;24.40;;;13.98;;
47749;SDS011;49810;48.160;10.812;2023-02-28T14:58:22;21.75;;;14.15;;
47749;SDS011;49810;48.160;10.812;2023-02-28T15:00:51;20.90;;;14.13;;
47749;SDS011;49810;48.160;10.812;2023-02-28T15:03:21;20.60;;;14.60;;
47749;SDS011;49810;48.160;10.812;2023-02-28T15:05:52;22.05;;;13.95;;
47749;SDS011;49810;48.160;10.812;2023-02-28T15:08:21;22.88;;;14.35;;